Estación de Negrete

Ultimos registro cada 15 minutos 30
Estación Fecha / Hora Temperatura Humedad Lluvia Velocidad Dirección Radiación Presion
30 Negrete 09-05-2026 07:15 5,2 80,9 0 0,5 147 0,6 1013,3
29 Negrete 09-05-2026 07:00 5,1 82,3 0 0 146 0,6 1013,4
28 Negrete 09-05-2026 06:45 4,9 83,3 0 0 131 0,6 1013,4
27 Negrete 09-05-2026 06:30 4,8 84,4 0 0 136 0,6 1013,3
26 Negrete 09-05-2026 06:15 4,5 86,6 0 0 166 0,6 1013,4
25 Negrete 09-05-2026 06:00 3,2 93,5 0 0 122 0,6 1013,5
24 Negrete 09-05-2026 05:45 3,3 93,4 0 0 76 0,6 1013,6
23 Negrete 09-05-2026 05:30 3,6 92,1 0 0 41 0,6 1013,6
22 Negrete 09-05-2026 05:15 4,2 89,8 0 0 117 0,6 1013,9
21 Negrete 09-05-2026 05:00 5,4 83,9 0 0 136 0,6 1013,9
20 Negrete 09-05-2026 04:45 5,6 84,2 0 0 150 0,6 1013,9
19 Negrete 09-05-2026 04:30 5,5 85,6 0 0 150 0,6 1013,7
18 Negrete 09-05-2026 04:15 5,5 86,3 0 0,5 152 0,6 1013,8
17 Negrete 09-05-2026 04:00 5,8 85,6 0 0,5 167 0,6 1013,9
16 Negrete 09-05-2026 03:45 5,8 86,7 0 0,5 167 0,6 1013,8
15 Negrete 09-05-2026 03:30 5,8 87,3 0 0,5 154 0,6 1014
14 Negrete 09-05-2026 03:15 5,4 90 0 0 138 0,6 1014,2
13 Negrete 09-05-2026 03:00 4,7 93,9 0 0 150 0,6 1014
12 Negrete 09-05-2026 02:45 4,9 94,3 0 0 160 0,6 1014,4
11 Negrete 09-05-2026 02:30 4,9 93,8 0 0 147 0,6 1014,7
10 Negrete 09-05-2026 02:15 5,3 93,2 0 0 93 0,6 1014,7
9 Negrete 09-05-2026 02:00 4,8 95 0 0 80 0,6 1014,6
8 Negrete 09-05-2026 01:45 5,1 93,8 0 0 91 0,6 1014,9
7 Negrete 09-05-2026 01:30 5,5 93,4 0 0 102 0,6 1014,9
6 Negrete 09-05-2026 01:15 5,9 92,3 0 0 83 0,6 1015
5 Negrete 09-05-2026 01:00 6,8 90,1 0 0 150 0,6 1014,9
4 Negrete 09-05-2026 00:45 6,7 91,3 0 0 157 0,6 1014,7
3 Negrete 09-05-2026 00:30 6,6 92,9 0 0 132 0,6 1014,5
2 Negrete 09-05-2026 00:15 6,6 93,3 0 0 115 0,6 1014,6
1 Negrete 09-05-2026 00:00 6,6 93,4 0 0 124 0,6 1014,5